sensor_id;sensor_type;location;lat;lon;timestamp;pressure;altitude;pressure_sealevel;temperature;humidity
4398;BME280;2213;49.720;7.296;2022-10-04T00:00:21;98921.19;;;8.19;100.00
4398;BME280;2213;49.720;7.296;2022-10-04T00:03:00;98926.88;;;8.15;100.00
4398;BME280;2213;49.720;7.296;2022-10-04T00:05:30;98926.06;;;8.14;100.00
4398;BME280;2213;49.720;7.296;2022-10-04T00:08:12;98926.72;;;8.16;100.00
4398;BME280;2213;49.720;7.296;2022-10-04T00:10:46;98927.00;;;8.13;100.00
4398;BME280;2213;49.720;7.296;2022-10-04T00:13:23;98930.59;;;8.12;100.00
4398;BME280;2213;49.720;7.296;2022-10-04T00:15:52;98923.06;;;8.09;100.00
4398;BME280;2213;49.720;7.296;2022-10-04T00:18:30;98919.59;;;8.00;100.00
4398;BME280;2213;49.720;7.296;2022-10-04T00:21:05;98916.97;;;8.00;100.00
4398;BME280;2213;49.720;7.296;2022-10-04T00:23:44;98911.84;;;7.91;100.00
4398;BME280;2213;49.720;7.296;2022-10-04T00:29:40;98909.91;;;7.93;100.00
4398;BME280;2213;49.720;7.296;2022-10-04T00:32:27;98909.47;;;7.97;100.00
4398;BME280;2213;49.720;7.296;2022-10-04T00:34:59;98914.06;;;7.86;100.00
4398;BME280;2213;49.720;7.296;2022-10-04T00:37:55;98910.41;;;7.79;100.00
4398;BME280;2213;49.720;7.296;2022-10-04T00:40:30;98901.47;;;7.81;100.00
4398;BME280;2213;49.720;7.296;2022-10-04T00:43:06;98906.69;;;7.81;100.00
4398;BME280;2213;49.720;7.296;2022-10-04T00:45:42;98905.50;;;7.76;100.00
4398;BME280;2213;49.720;7.296;2022-10-04T00:48:37;98906.16;;;7.78;100.00
4398;BME280;2213;49.720;7.296;2022-10-04T00:51:22;98899.91;;;7.71;100.00
4398;BME280;2213;49.720;7.296;2022-10-04T00:54:02;98900.50;;;7.65;100.00
4398;BME280;2213;49.720;7.296;2022-10-04T00:56:41;98900.22;;;7.68;100.00
4398;BME280;2213;49.720;7.296;2022-10-04T00:59:33;98903.22;;;7.73;100.00
4398;BME280;2213;49.720;7.296;2022-10-04T01:02:13;98902.69;;;7.69;100.00
4398;BME280;2213;49.720;7.296;2022-10-04T01:04:51;98896.66;;;7.69;100.00
4398;BME280;2213;49.720;7.296;2022-10-04T01:07:30;98895.91;;;7.58;100.00
4398;BME280;2213;49.720;7.296;2022-10-04T01:10:06;98899.16;;;7.60;100.00
4398;BME280;2213;49.720;7.296;2022-10-04T01:12:43;98888.75;;;7.60;100.00
4398;BME280;2213;49.720;7.296;2022-10-04T01:15:24;98891.34;;;7.60;100.00
4398;BME280;2213;49.720;7.296;2022-10-04T01:18:14;98891.34;;;7.60;100.00
4398;BME280;2213;49.720;7.296;2022-10-04T01:20:56;98883.84;;;7.57;100.00
4398;BME280;2213;49.720;7.296;2022-10-04T01:23:41;98886.91;;;7.53;100.00
4398;BME280;2213;49.720;7.296;2022-10-04T01:26:40;98888.00;;;7.50;100.00
4398;BME280;2213;49.720;7.296;2022-10-04T01:29:13;98879.53;;;7.48;100.00
4398;BME280;2213;49.720;7.296;2022-10-04T01:31:46;98877.88;;;7.47;100.00
4398;BME280;2213;49.720;7.296;2022-10-04T01:34:18;98883.09;;;7.47;100.00
4398;BME280;2213;49.720;7.296;2022-10-04T01:36:51;98872.69;;;7.47;100.00
4398;BME280;2213;49.720;7.296;2022-10-04T01:39:25;98861.47;;;7.47;100.00
4398;BME280;2213;49.720;7.296;2022-10-04T01:42:03;98862.06;;;7.41;100.00
4398;BME280;2213;49.720;7.296;2022-10-04T01:44:51;98864.78;;;7.39;100.00
4398;BME280;2213;49.720;7.296;2022-10-04T01:47:31;98861.22;;;7.40;100.00
4398;BME280;2213;49.720;7.296;2022-10-04T01:50:10;98853.06;;;7.35;100.00
4398;BME280;2213;49.720;7.296;2022-10-04T01:52:47;98851.47;;;7.25;100.00
4398;BME280;2213;49.720;7.296;2022-10-04T01:55:25;98857.50;;;7.25;100.00
4398;BME280;2213;49.720;7.296;2022-10-04T01:58:01;98848.34;;;7.21;100.00
4398;BME280;2213;49.720;7.296;2022-10-04T02:00:32;98842.31;;;7.21;100.00
4398;BME280;2213;49.720;7.296;2022-10-04T02:03:08;98841.09;;;7.15;100.00
4398;BME280;2213;49.720;7.296;2022-10-04T02:05:43;98845.78;;;7.12;100.00
4398;BME280;2213;49.720;7.296;2022-10-04T02:08:23;98833.59;;;7.12;100.00
4398;BME280;2213;49.720;7.296;2022-10-04T02:10:56;98838.72;;;7.04;100.00
4398;BME280;2213;49.720;7.296;2022-10-04T02:13:33;98830.94;;;7.04;100.00
4398;BME280;2213;49.720;7.296;2022-10-04T02:16:09;98828.34;;;7.04;100.00
4398;BME280;2213;49.720;7.296;2022-10-04T02:18:41;98833.38;;;7.05;100.00
4398;BME280;2213;49.720;7.296;2022-10-04T02:21:13;98830.09;;;7.03;100.00
4398;BME280;2213;49.720;7.296;2022-10-04T02:23:44;98826.16;;;6.99;100.00
4398;BME280;2213;49.720;7.296;2022-10-04T02:26:16;98818.25;;;6.91;100.00
4398;BME280;2213;49.720;7.296;2022-10-04T02:28:46;98821.38;;;6.95;100.00
4398;BME280;2213;49.720;7.296;2022-10-04T02:31:21;98822.91;;;6.88;100.00
4398;BME280;2213;49.720;7.296;2022-10-04T02:34:08;98819.94;;;6.83;100.00
4398;BME280;2213;49.720;7.296;2022-10-04T02:36:38;98812.28;;;6.81;100.00
4398;BME280;2213;49.720;7.296;2022-10-04T02:39:14;98816.13;;;6.77;100.00
4398;BME280;2213;49.720;7.296;2022-10-04T02:41:49;98815.56;;;6.83;100.00
4398;BME280;2213;49.720;7.296;2022-10-04T02:44:24;98811.16;;;6.84;100.00
4398;BME280;2213;49.720;7.296;2022-10-04T02:47:06;98807.31;;;6.88;100.00
4398;BME280;2213;49.720;7.296;2022-10-04T02:49:42;98812.41;;;6.89;100.00
4398;BME280;2213;49.720;7.296;2022-10-04T02:52:41;98803.63;;;6.90;100.00
4398;BME280;2213;49.720;7.296;2022-10-04T02:55:19;98801.84;;;6.91;100.00
4398;BME280;2213;49.720;7.296;2022-10-04T02:57:51;98803.25;;;6.85;100.00
4398;BME280;2213;49.720;7.296;2022-10-04T03:00:25;98803.78;;;6.89;100.00
4398;BME280;2213;49.720;7.296;2022-10-04T03:03:18;98806.91;;;6.92;100.00
4398;BME280;2213;49.720;7.296;2022-10-04T03:06:00;98808.00;;;6.90;100.00
4398;BME280;2213;49.720;7.296;2022-10-04T03:08:34;98808.97;;;6.89;100.00
4398;BME280;2213;49.720;7.296;2022-10-04T03:11:04;98803.78;;;6.89;100.00
4398;BME280;2213;49.720;7.296;2022-10-04T03:13:38;98801.31;;;6.87;100.00
4398;BME280;2213;49.720;7.296;2022-10-04T03:16:08;98802.13;;;6.88;100.00
4398;BME280;2213;49.720;7.296;2022-10-04T03:18:38;98806.25;;;6.81;100.00
4398;BME280;2213;49.720;7.296;2022-10-04T03:21:12;98804.50;;;6.81;100.00
4398;BME280;2213;49.720;7.296;2022-10-04T03:23:45;98805.59;;;6.79;100.00
4398;BME280;2213;49.720;7.296;2022-10-04T03:26:27;98805.47;;;6.80;100.00
4398;BME280;2213;49.720;7.296;2022-10-04T03:29:01;98812.16;;;6.83;100.00
4398;BME280;2213;49.720;7.296;2022-10-04T03:31:38;98804.34;;;6.83;100.00
4398;BME280;2213;49.720;7.296;2022-10-04T03:34:15;98809.56;;;6.83;100.00
4398;BME280;2213;49.720;7.296;2022-10-04T03:36:46;98806.25;;;6.81;100.00
4398;BME280;2213;49.720;7.296;2022-10-04T03:39:26;98802.72;;;6.82;100.00
4398;BME280;2213;49.720;7.296;2022-10-04T03:41:57;98804.34;;;6.83;100.00
4398;BME280;2213;49.720;7.296;2022-10-04T03:44:29;98804.66;;;6.80;100.00
4398;BME280;2213;49.720;7.296;2022-10-04T03:47:00;98794.97;;;6.72;100.00
4398;BME280;2213;49.720;7.296;2022-10-04T03:49:34;98803.44;;;6.74;100.00
4398;BME280;2213;49.720;7.296;2022-10-04T03:52:06;98807.69;;;6.75;100.00
4398;BME280;2213;49.720;7.296;2022-10-04T03:54:41;98812.03;;;6.75;100.00
4398;BME280;2213;49.720;7.296;2022-10-04T03:57:11;98803.97;;;6.78;100.00
4398;BME280;2213;49.720;7.296;2022-10-04T03:59:41;98813.41;;;6.79;100.00
4398;BME280;2213;49.720;7.296;2022-10-04T04:02:20;98814.06;;;6.81;100.00
4398;BME280;2213;49.720;7.296;2022-10-04T04:05:05;98814.06;;;6.81;100.00
4398;BME280;2213;49.720;7.296;2022-10-04T04:07:44;98812.59;;;6.78;100.00
4398;BME280;2213;49.720;7.296;2022-10-04T04:10:21;98807.38;;;6.78;100.00
4398;BME280;2213;49.720;7.296;2022-10-04T04:12:56;98800.53;;;6.77;100.00
4398;BME280;2213;49.720;7.296;2022-10-04T04:15:32;98800.53;;;6.77;100.00
4398;BME280;2213;49.720;7.296;2022-10-04T04:18:04;98813.69;;;6.76;100.00
4398;BME280;2213;49.720;7.296;2022-10-04T04:20:37;98810.13;;;6.77;100.00
4398;BME280;2213;49.720;7.296;2022-10-04T04:23:22;98793.19;;;6.73;100.00
4398;BME280;2213;49.720;7.296;2022-10-04T04:25:55;98797.28;;;6.75;100.00
4398;BME280;2213;49.720;7.296;2022-10-04T04:28:37;98796.16;;;6.78;100.00
4398;BME280;2213;49.720;7.296;2022-10-04T04:31:19;98798.41;;;6.73;100.00
4398;BME280;2213;49.720;7.296;2022-10-04T04:33:55;98797.84;;;6.69;100.00
4398;BME280;2213;49.720;7.296;2022-10-04T04:36:30;98795.41;;;6.68;100.00
4398;BME280;2213;49.720;7.296;2022-10-04T04:39:08;98798.69;;;6.70;100.00
4398;BME280;2213;49.720;7.296;2022-10-04T04:41:58;98796.09;;;6.70;100.00
4398;BME280;2213;49.720;7.296;2022-10-04T04:44:28;98777.91;;;6.60;100.00
4398;BME280;2213;49.720;7.296;2022-10-04T04:46:59;98788.47;;;6.58;100.00
4398;BME280;2213;49.720;7.296;2022-10-04T04:49:29;98782.28;;;6.59;100.00
4398;BME280;2213;49.720;7.296;2022-10-04T04:52:00;98780.69;;;6.58;100.00
4398;BME280;2213;49.720;7.296;2022-10-04T04:54:29;98772.47;;;6.53;100.00
4398;BME280;2213;49.720;7.296;2022-10-04T04:56:57;98771.28;;;6.48;100.00
4398;BME280;2213;49.720;7.296;2022-10-04T04:59:27;98767.19;;;6.45;100.00
4398;BME280;2213;49.720;7.296;2022-10-04T05:01:55;98765.56;;;6.44;100.00
4398;BME280;2213;49.720;7.296;2022-10-04T05:04:26;98772.53;;;6.44;100.00
4398;BME280;2213;49.720;7.296;2022-10-04T05:07:04;98774.47;;;6.42;100.00
4398;BME280;2213;49.720;7.296;2022-10-04T05:09:35;98766.66;;;6.42;100.00
4398;BME280;2213;49.720;7.296;2022-10-04T05:12:13;98769.53;;;6.39;100.00
4398;BME280;2213;49.720;7.296;2022-10-04T05:14:48;98763.72;;;6.27;100.00
4398;BME280;2213;49.720;7.296;2022-10-04T05:17:24;98769.16;;;6.34;100.00
4398;BME280;2213;49.720;7.296;2022-10-04T05:19:59;98771.31;;;6.38;100.00
4398;BME280;2213;49.720;7.296;2022-10-04T05:22:31;98777.59;;;6.36;100.00
4398;BME280;2213;49.720;7.296;2022-10-04T05:25:06;98776.94;;;6.34;100.00
4398;BME280;2213;49.720;7.296;2022-10-04T05:27:39;98778.06;;;6.31;100.00
4398;BME280;2213;49.720;7.296;2022-10-04T05:30:29;98769.84;;;6.26;100.00
4398;BME280;2213;49.720;7.296;2022-10-04T05:33:02;98781.88;;;6.27;100.00
4398;BME280;2213;49.720;7.296;2022-10-04T05:35:49;98789.69;;;6.27;100.00
4398;BME280;2213;49.720;7.296;2022-10-04T05:38:32;98784.38;;;6.19;100.00
4398;BME280;2213;49.720;7.296;2022-10-04T05:41:12;98786.97;;;6.19;100.00
4398;BME280;2213;49.720;7.296;2022-10-04T05:43:47;98786.97;;;6.19;100.00
4398;BME280;2213;49.720;7.296;2022-10-04T05:46:23;98788.72;;;6.19;100.00
4398;BME280;2213;49.720;7.296;2022-10-04T05:48:57;98780.00;;;6.20;100.00
4398;BME280;2213;49.720;7.296;2022-10-04T05:51:33;98781.63;;;6.11;100.00
4398;BME280;2213;49.720;7.296;2022-10-04T05:54:04;98769.94;;;6.07;100.00
4398;BME280;2213;49.720;7.296;2022-10-04T05:57:11;98768.00;;;6.09;100.00
4398;BME280;2213;49.720;7.296;2022-10-04T06:00:12;98778.78;;;6.14;100.00
4398;BME280;2213;49.720;7.296;2022-10-04T06:03:25;98776.19;;;6.14;100.00
4398;BME280;2213;49.720;7.296;2022-10-04T06:06:03;98780.56;;;6.14;100.00
4398;BME280;2213;49.720;7.296;2022-10-04T06:08:50;98784.53;;;6.08;100.00
4398;BME280;2213;49.720;7.296;2022-10-04T06:11:35;98782.22;;;6.05;100.00
4398;BME280;2213;49.720;7.296;2022-10-04T06:14:53;98784.41;;;6.10;100.00
4398;BME280;2213;49.720;7.296;2022-10-04T06:17:54;98778.91;;;6.13;100.00
4398;BME280;2213;49.720;7.296;2022-10-04T06:20:58;98788.88;;;6.07;100.00
4398;BME280;2213;49.720;7.296;2022-10-04T06:23:43;98789.03;;;6.06;100.00
4398;BME280;2213;49.720;7.296;2022-10-04T06:26:20;98796.44;;;6.11;100.00
4398;BME280;2213;49.720;7.296;2022-10-04T06:28:56;98799.97;;;6.10;100.00
4398;BME280;2213;49.720;7.296;2022-10-04T06:35:39;98808.31;;;6.13;100.00
4398;BME280;2213;49.720;7.296;2022-10-04T06:39:13;98804.88;;;6.13;100.00
4398;BME280;2213;49.720;7.296;2022-10-04T06:42:16;98792.56;;;6.15;100.00
4398;BME280;2213;49.720;7.296;2022-10-04T06:45:21;98793.38;;;6.15;100.00
4398;BME280;2213;49.720;7.296;2022-10-04T06:48:39;98794.38;;;6.14;100.00
4398;BME280;2213;49.720;7.296;2022-10-04T06:51:22;98786.66;;;6.22;100.00
4398;BME280;2213;49.720;7.296;2022-10-04T06:54:06;98783.50;;;6.28;100.00
4398;BME280;2213;49.720;7.296;2022-10-04T06:57:14;98786.78;;;6.30;100.00
4398;BME280;2213;49.720;7.296;2022-10-04T07:00:07;98786.78;;;6.30;100.00
4398;BME280;2213;49.720;7.296;2022-10-04T07:02:42;98794.97;;;6.35;100.00
4398;BME280;2213;49.720;7.296;2022-10-04T07:05:24;98790.59;;;6.36;100.00
4398;BME280;2213;49.720;7.296;2022-10-04T07:08:09;98807.00;;;6.36;100.00
4398;BME280;2213;49.720;7.296;2022-10-04T07:10:48;98811.09;;;6.39;100.00
4398;BME280;2213;49.720;7.296;2022-10-04T07:13:38;98808.59;;;6.47;100.00
4398;BME280;2213;49.720;7.296;2022-10-04T07:16:24;98809.97;;;6.51;100.00
4398;BME280;2213;49.720;7.296;2022-10-04T07:19:28;98807.59;;;6.57;100.00
4398;BME280;2213;49.720;7.296;2022-10-04T07:22:13;98814.28;;;6.60;100.00
4398;BME280;2213;49.720;7.296;2022-10-04T07:25:02;98810.31;;;6.66;100.00
4398;BME280;2213;49.720;7.296;2022-10-04T07:27:45;98802.53;;;6.66;100.00
4398;BME280;2213;49.720;7.296;2022-10-04T07:30:19;98813.44;;;6.69;100.00
4398;BME280;2213;49.720;7.296;2022-10-04T07:32:49;98825.19;;;6.73;100.00
4398;BME280;2213;49.720;7.296;2022-10-04T07:35:27;98819.72;;;6.76;100.00
4398;BME280;2213;49.720;7.296;2022-10-04T07:38:13;98816.66;;;6.81;100.00
4398;BME280;2213;49.720;7.296;2022-10-04T07:41:05;98820.91;;;6.82;100.00
4398;BME280;2213;49.720;7.296;2022-10-04T07:43:47;98821.31;;;6.87;100.00
4398;BME280;2213;49.720;7.296;2022-10-04T07:46:36;98817.59;;;6.89;100.00
4398;BME280;2213;49.720;7.296;2022-10-04T07:49:14;98812.91;;;6.93;100.00
4398;BME280;2213;49.720;7.296;2022-10-04T07:52:06;98817.69;;;6.97;100.00
4398;BME280;2213;49.720;7.296;2022-10-04T07:54:49;98822.16;;;7.05;100.00
4398;BME280;2213;49.720;7.296;2022-10-04T07:57:31;98813.78;;;7.11;100.00
4398;BME280;2213;49.720;7.296;2022-10-04T08:00:11;98809.09;;;7.15;100.00
4398;BME280;2213;49.720;7.296;2022-10-04T08:03:09;98802.50;;;7.20;100.00
4398;BME280;2213;49.720;7.296;2022-10-04T08:05:43;98797.00;;;7.23;100.00
4398;BME280;2213;49.720;7.296;2022-10-04T08:08:42;98803.53;;;7.27;100.00
4398;BME280;2213;49.720;7.296;2022-10-04T08:11:23;98802.94;;;7.33;100.00
4398;BME280;2213;49.720;7.296;2022-10-04T08:14:17;98800.03;;;7.36;100.00
4398;BME280;2213;49.720;7.296;2022-10-04T08:17:09;98796.56;;;7.45;100.00
4398;BME280;2213;49.720;7.296;2022-10-04T08:20:03;98799.22;;;7.53;100.00
4398;BME280;2213;49.720;7.296;2022-10-04T08:23:00;98800.28;;;7.60;100.00
4398;BME280;2213;49.720;7.296;2022-10-04T08:25:43;98799.53;;;7.68;100.00
4398;BME280;2213;49.720;7.296;2022-10-04T08:28:28;98789.50;;;7.73;100.00
4398;BME280;2213;49.720;7.296;2022-10-04T08:31:35;98795.72;;;7.80;100.00
4398;BME280;2213;49.720;7.296;2022-10-04T08:34:25;98789.09;;;7.86;100.00
4398;BME280;2213;49.720;7.296;2022-10-04T08:37:15;98787.53;;;7.93;100.00
4398;BME280;2213;49.720;7.296;2022-10-04T08:40:16;98779.78;;;8.01;100.00
4398;BME280;2213;49.720;7.296;2022-10-04T08:43:47;98779.00;;;8.08;100.00
4398;BME280;2213;49.720;7.296;2022-10-04T08:50:26;98777.03;;;8.28;100.00
4398;BME280;2213;49.720;7.296;2022-10-04T08:53:40;98781.16;;;8.39;100.00
4398;BME280;2213;49.720;7.296;2022-10-04T08:56:25;98782.84;;;8.48;100.00
4398;BME280;2213;49.720;7.296;2022-10-04T09:02:50;98779.19;;;8.67;100.00
4398;BME280;2213;49.720;7.296;2022-10-04T09:05:52;98782.81;;;8.74;100.00
4398;BME280;2213;49.720;7.296;2022-10-04T09:09:11;;;;8.82;
4398;BME280;2213;49.720;7.296;2022-10-04T09:12:05;98781.88;;;8.91;100.00
4398;BME280;2213;49.720;7.296;2022-10-04T09:15:00;98773.41;;;8.97;100.00
4398;BME280;2213;49.720;7.296;2022-10-04T09:17:47;98772.63;;;9.04;100.00
4398;BME280;2213;49.720;7.296;2022-10-04T09:20:30;98769.56;;;9.09;100.00
4398;BME280;2213;49.720;7.296;2022-10-04T09:23:23;98775.78;;;9.16;100.00
4398;BME280;2213;49.720;7.296;2022-10-04T09:26:20;98778.69;;;9.21;100.00
4398;BME280;2213;49.720;7.296;2022-10-04T09:29:25;98779.69;;;9.28;100.00
4398;BME280;2213;49.720;7.296;2022-10-04T09:39:28;98764.22;;;9.51;100.00
4398;BME280;2213;49.720;7.296;2022-10-04T09:42:30;98770.41;;;9.58;100.00
4398;BME280;2213;49.720;7.296;2022-10-04T09:45:42;98762.78;;;9.65;100.00
4398;BME280;2213;49.720;7.296;2022-10-04T09:48:38;98761.94;;;9.72;100.00
4398;BME280;2213;49.720;7.296;2022-10-04T09:51:50;98769.78;;;9.80;100.00
4398;BME280;2213;49.720;7.296;2022-10-04T09:55:00;98773.22;;;9.89;100.00
4398;BME280;2213;49.720;7.296;2022-10-04T09:57:50;98768.94;;;9.96;100.00
4398;BME280;2213;49.720;7.296;2022-10-04T10:00:23;98762.25;;;10.01;100.00
4398;BME280;2213;49.720;7.296;2022-10-04T10:06:45;98759.13;;;10.14;100.00
4398;BME280;2213;49.720;7.296;2022-10-04T10:09:29;98759.94;;;10.23;100.00
4398;BME280;2213;49.720;7.296;2022-10-04T10:13:09;98757.47;;;10.29;100.00
4398;BME280;2213;49.720;7.296;2022-10-04T10:16:09;98755.00;;;10.36;100.00
4398;BME280;2213;49.720;7.296;2022-10-04T10:18:57;98749.09;;;10.42;100.00
4398;BME280;2213;49.720;7.296;2022-10-04T10:21:50;98749.91;;;10.50;100.00
4398;BME280;2213;49.720;7.296;2022-10-04T10:25:03;98749.06;;;10.58;100.00
4398;BME280;2213;49.720;7.296;2022-10-04T10:28:23;98745.56;;;10.66;100.00
4398;BME280;2213;49.720;7.296;2022-10-04T10:31:24;98748.81;;;10.76;100.00
4398;BME280;2213;49.720;7.296;2022-10-04T10:34:40;98743.53;;;10.84;100.00
4398;BME280;2213;49.720;7.296;2022-10-04T10:37:25;98752.50;;;10.89;100.00
4398;BME280;2213;49.720;7.296;2022-10-04T10:40:39;98759.31;;;10.98;100.00
4398;BME280;2213;49.720;7.296;2022-10-04T10:43:30;98756.00;;;11.04;100.00
4398;BME280;2213;49.720;7.296;2022-10-04T10:49:41;98751.16;;;11.24;100.00
4398;BME280;2213;49.720;7.296;2022-10-04T10:52:54;98747.16;;;11.36;100.00
4398;BME280;2213;49.720;7.296;2022-10-04T10:59:29;98749.97;;;11.49;100.00
4398;BME280;2213;49.720;7.296;2022-10-04T11:06:06;98742.66;;;11.68;100.00
4398;BME280;2213;49.720;7.296;2022-10-04T11:09:27;98742.78;;;11.74;100.00
4398;BME280;2213;49.720;7.296;2022-10-04T11:12:30;98743.69;;;11.81;100.00
4398;BME280;2213;49.720;7.296;2022-10-04T11:16:09;98737.56;;;11.89;100.00
4398;BME280;2213;49.720;7.296;2022-10-04T11:19:23;98728.84;;;11.96;100.00
4398;BME280;2213;49.720;7.296;2022-10-04T11:22:50;98729.53;;;12.05;100.00
4398;BME280;2213;49.720;7.296;2022-10-04T11:26:22;98719.59;;;12.15;100.00
4398;BME280;2213;49.720;7.296;2022-10-04T11:29:21;98719.16;;;12.26;100.00
4398;BME280;2213;49.720;7.296;2022-10-04T11:35:46;98701.94;;;12.53;100.00
4398;BME280;2213;49.720;7.296;2022-10-04T11:38:42;98695.63;;;12.62;100.00
4398;BME280;2213;49.720;7.296;2022-10-04T11:41:24;98677.94;;;12.71;100.00
4398;BME280;2213;49.720;7.296;2022-10-04T11:47:40;98660.88;;;12.96;100.00
4398;BME280;2213;49.720;7.296;2022-10-04T11:50:43;98655.38;;;13.12;100.00
4398;BME280;2213;49.720;7.296;2022-10-04T11:53:53;98647.00;;;13.23;100.00
4398;BME280;2213;49.720;7.296;2022-10-04T11:56:51;98645.91;;;13.32;100.00
4398;BME280;2213;49.720;7.296;2022-10-04T11:59:40;98644.75;;;13.41;100.00
4398;BME280;2213;49.720;7.296;2022-10-04T12:06:08;98640.91;;;13.72;100.00
4398;BME280;2213;49.720;7.296;2022-10-04T12:09:00;98630.97;;;13.95;100.00
4398;BME280;2213;49.720;7.296;2022-10-04T12:15:38;98625.03;;;14.27;100.00
4398;BME280;2213;49.720;7.296;2022-10-04T12:18:48;98627.53;;;14.35;100.00
4398;BME280;2213;49.720;7.296;2022-10-04T12:21:40;98620.06;;;14.39;100.00
4398;BME280;2213;49.720;7.296;2022-10-04T12:27:57;98626.84;;;14.61;100.00
4398;BME280;2213;49.720;7.296;2022-10-04T12:31:00;98613.47;;;14.63;100.00
4398;BME280;2213;49.720;7.296;2022-10-04T12:33:43;98607.00;;;14.72;100.00
4398;BME280;2213;49.720;7.296;2022-10-04T12:36:40;98609.25;;;14.75;100.00
4398;BME280;2213;49.720;7.296;2022-10-04T12:39:40;98604.19;;;14.80;100.00
4398;BME280;2213;49.720;7.296;2022-10-04T12:42:27;98603.19;;;14.81;100.00
4398;BME280;2213;49.720;7.296;2022-10-04T12:45:33;98604.41;;;14.85;100.00
4398;BME280;2213;49.720;7.296;2022-10-04T12:48:47;98604.19;;;14.93;100.00
4398;BME280;2213;49.720;7.296;2022-10-04T12:51:41;98594.28;;;15.01;100.00
4398;BME280;2213;49.720;7.296;2022-10-04T12:54:38;98588.44;;;15.06;100.00
4398;BME280;2213;49.720;7.296;2022-10-04T12:57:40;98589.44;;;15.18;100.00
4398;BME280;2213;49.720;7.296;2022-10-04T13:00:19;98590.66;;;15.22;100.00
4398;BME280;2213;49.720;7.296;2022-10-04T13:03:19;98582.75;;;15.22;100.00
4398;BME280;2213;49.720;7.296;2022-10-04T13:06:03;98583.34;;;15.24;100.00
4398;BME280;2213;49.720;7.296;2022-10-04T13:08:56;98582.94;;;15.27;100.00
4398;BME280;2213;49.720;7.296;2022-10-04T13:12:07;98577.88;;;15.32;100.00
4398;BME280;2213;49.720;7.296;2022-10-04T13:15:11;98574.00;;;15.41;100.00
4398;BME280;2213;49.720;7.296;2022-10-04T13:17:53;98576.25;;;15.44;100.00
4398;BME280;2213;49.720;7.296;2022-10-04T13:20:50;98580.72;;;15.57;100.00
4398;BME280;2213;49.720;7.296;2022-10-04T13:23:51;98571.81;;;15.58;100.00
4398;BME280;2213;49.720;7.296;2022-10-04T13:26:41;98579.50;;;15.59;100.00
4398;BME280;2213;49.720;7.296;2022-10-04T13:29:24;98580.28;;;15.67;100.00
4398;BME280;2213;49.720;7.296;2022-10-04T13:32:02;98589.59;;;15.69;100.00
4398;BME280;2213;49.720;7.296;2022-10-04T13:34:42;98588.97;;;15.80;100.00
4398;BME280;2213;49.720;7.296;2022-10-04T13:37:29;98580.66;;;15.83;100.00
4398;BME280;2213;49.720;7.296;2022-10-04T13:40:35;98579.03;;;15.89;100.00
4398;BME280;2213;49.720;7.296;2022-10-04T13:43:31;98573.91;;;15.94;100.00
4398;BME280;2213;49.720;7.296;2022-10-04T13:46:24;98571.47;;;16.05;100.00
4398;BME280;2213;49.720;7.296;2022-10-04T13:49:19;98573.66;;;16.15;100.00
4398;BME280;2213;49.720;7.296;2022-10-04T13:52:09;98579.84;;;16.40;100.00
4398;BME280;2213;49.720;7.296;2022-10-04T13:55:21;98574.19;;;16.75;100.00
4398;BME280;2213;49.720;7.296;2022-10-04T13:58:24;98574.38;;;17.29;100.00
4398;BME280;2213;49.720;7.296;2022-10-04T14:01:54;98575.53;;;18.01;100.00
4398;BME280;2213;49.720;7.296;2022-10-04T14:08:34;98563.25;;;18.54;100.00
4398;BME280;2213;49.720;7.296;2022-10-04T14:11:54;98560.13;;;18.57;100.00
4398;BME280;2213;49.720;7.296;2022-10-04T14:18:46;98551.47;;;18.50;100.00
4398;BME280;2213;49.720;7.296;2022-10-04T14:34:55;98534.47;;;18.58;100.00
4398;BME280;2213;49.720;7.296;2022-10-04T14:45:03;98549.44;;;18.64;100.00
4398;BME280;2213;49.720;7.296;2022-10-04T14:48:20;98560.41;;;18.68;100.00
4398;BME280;2213;49.720;7.296;2022-10-04T14:51:20;98557.06;;;18.72;100.00
4398;BME280;2213;49.720;7.296;2022-10-04T14:53:59;98554.31;;;18.67;100.00
4398;BME280;2213;49.720;7.296;2022-10-04T14:56:49;98561.22;;;18.68;98.44
4398;BME280;2213;49.720;7.296;2022-10-04T15:03:16;98560.69;;;18.78;95.82
4398;BME280;2213;49.720;7.296;2022-10-04T15:09:12;98548.91;;;18.74;93.86
4398;BME280;2213;49.720;7.296;2022-10-04T15:11:52;98540.63;;;18.82;96.64
4398;BME280;2213;49.720;7.296;2022-10-04T15:15:12;98536.72;;;18.84;99.08
4398;BME280;2213;49.720;7.296;2022-10-04T15:17:59;98543.88;;;18.84;96.59
4398;BME280;2213;49.720;7.296;2022-10-04T15:20:35;98536.84;;;18.89;100.00
4398;BME280;2213;49.720;7.296;2022-10-04T15:23:29;98540.28;;;18.90;100.00
4398;BME280;2213;49.720;7.296;2022-10-04T15:29:08;98535.78;;;18.79;100.00
4398;BME280;2213;49.720;7.296;2022-10-04T15:31:59;98536.34;;;18.69;100.00
4398;BME280;2213;49.720;7.296;2022-10-04T15:34:39;98530.38;;;18.74;100.00
4398;BME280;2213;49.720;7.296;2022-10-04T15:37:21;98529.06;;;18.65;100.00
4398;BME280;2213;49.720;7.296;2022-10-04T15:40:31;98528.34;;;18.57;100.00
4398;BME280;2213;49.720;7.296;2022-10-04T15:43:24;98524.53;;;18.53;100.00
4398;BME280;2213;49.720;7.296;2022-10-04T15:46:40;98522.13;;;18.52;100.00
4398;BME280;2213;49.720;7.296;2022-10-04T15:49:47;98526.09;;;18.43;100.00
4398;BME280;2213;49.720;7.296;2022-10-04T15:52:45;98516.13;;;18.27;100.00
4398;BME280;2213;49.720;7.296;2022-10-04T15:55:21;98506.22;;;18.22;100.00
4398;BME280;2213;49.720;7.296;2022-10-04T15:59:10;98504.72;;;17.96;100.00
4398;BME280;2213;49.720;7.296;2022-10-04T16:04:59;98509.38;;;17.65;100.00
4398;BME280;2213;49.720;7.296;2022-10-04T16:07:53;98505.66;;;17.47;100.00
4398;BME280;2213;49.720;7.296;2022-10-04T16:10:54;98507.41;;;17.35;100.00
4398;BME280;2213;49.720;7.296;2022-10-04T16:17:31;98499.47;;;17.17;100.00
4398;BME280;2213;49.720;7.296;2022-10-04T16:20:57;98500.81;;;17.01;100.00
4398;BME280;2213;49.720;7.296;2022-10-04T16:23:34;98500.50;;;16.91;100.00
4398;BME280;2213;49.720;7.296;2022-10-04T16:26:08;98507.72;;;16.78;100.00
4398;BME280;2213;49.720;7.296;2022-10-04T16:28:54;98511.66;;;16.69;100.00
4398;BME280;2213;49.720;7.296;2022-10-04T16:31:52;98504.81;;;16.54;100.00
4398;BME280;2213;49.720;7.296;2022-10-04T16:34:44;98508.50;;;16.47;100.00
4398;BME280;2213;49.720;7.296;2022-10-04T16:37:30;98506.53;;;16.36;100.00
4398;BME280;2213;49.720;7.296;2022-10-04T16:40:19;98506.59;;;16.29;100.00
4398;BME280;2213;49.720;7.296;2022-10-04T16:42:56;98515.78;;;16.20;100.00
4398;BME280;2213;49.720;7.296;2022-10-04T16:46:04;98506.47;;;16.11;100.00
4398;BME280;2213;49.720;7.296;2022-10-04T16:48:46;98506.69;;;16.09;100.00